Time;durP1;ratioP1;P1;durP2;ratioP2;P2;SDS_P1;SDS_P2;PMS_P1;PMS_P2;Temp;Humidity;BMP_temperature;BMP_pressure;BME280_temperature;BME280_humidity;BME280_pressure;Samples;Min_cycle;Max_cycle;Signal;HPM_P1;HPM_P2
2022/02/03 00:01:12;;;;;;;3.42;1.67;;;;;;;;;;6121610;23;20097;-96
2022/02/03 00:04:08;;;;;;;8.70;2.67;;;;;;;;;;6124544;23;20025;-96
2022/02/03 00:06:52;;;;;;;4.97;2.38;;;;;;;;;;6124086;23;20017;-96
2022/02/03 00:25:46;;;;;;;9.93;2.38;;;;;;;;;;6178861;23;20071;-95
2022/02/03 00:28:19;;;;;;;6.28;3.20;;;;;;;;;;6157704;23;20002;-95
2022/02/03 00:33:50;;;;;;;8.18;3.88;;;;;;;;;;6206592;23;20015;-96
2022/02/03 00:36:25;;;;;;;6.28;3.03;;;;;;;;;;6214094;23;20397;-96
2022/02/03 00:50:10;;;;;;;2.05;1.42;;;;;;;;;;6213248;23;20015;-96
2022/02/03 00:52:36;;;;;;;7.80;2.42;;;;;;;;;;6212448;23;20598;-96
2022/02/03 00:55:04;;;;;;;3.33;2.30;;;;;;;;;;6215267;23;20008;-96
2022/02/03 00:57:40;;;;;;;8.75;2.55;;;;;;;;;;6188479;23;20088;-96
2022/02/03 01:00:07;;;;;;;5.63;3.13;;;;;;;;;;6213754;23;20017;-96
2022/02/03 01:02:39;;;;;;;5.20;3.05;;;;;;;;;;6210794;23;20086;-96
2022/02/03 01:05:06;;;;;;;5.15;2.33;;;;;;;;;;6188021;23;20008;-96
2022/02/03 01:07:36;;;;;;;3.35;1.75;;;;;;;;;;6214589;23;20020;-96
2022/02/03 01:10:13;;;;;;;5.60;1.73;;;;;;;;;;6213288;23;20019;-96
2022/02/03 01:15:50;;;;;;;9.27;3.35;;;;;;;;;;6152775;23;20009;-96
2022/02/03 01:21:39;;;;;;;6.25;3.03;;;;;;;;;;6060783;23;20015;-96
2022/02/03 01:36:55;;;;;;;8.30;3.22;;;;;;;;;;6152685;23;20098;-95
2022/02/03 01:45:58;;;;;;;10.02;3.28;;;;;;;;;;6152400;23;20068;-96
2022/02/03 01:48:38;;;;;;;12.23;3.63;;;;;;;;;;6151084;23;20030;-96
2022/02/03 01:53:58;;;;;;;7.70;2.55;;;;;;;;;;6214719;23;21290;-96
2022/02/03 01:56:30;;;;;;;4.90;2.45;;;;;;;;;;6214187;23;20069;-96
2022/02/03 01:58:59;;;;;;;6.32;2.10;;;;;;;;;;6215029;23;20440;-95
2022/02/03 02:01:29;;;;;;;8.82;3.75;;;;;;;;;;6210303;23;20067;-96
2022/02/03 02:04:13;;;;;;;2.90;2.60;;;;;;;;;;6212459;23;20009;-96
2022/02/03 02:06:45;;;;;;;8.55;3.38;;;;;;;;;;6215842;23;20009;-95
2022/02/03 02:09:20;;;;;;;5.25;2.42;;;;;;;;;;6217578;23;20465;-96
2022/02/03 02:12:00;;;;;;;2.95;1.90;;;;;;;;;;6214872;23;20004;-96
2022/02/03 02:37:17;;;;;;;5.90;2.58;;;;;;;;;;6244751;23;20451;-96
2022/02/03 02:42:35;;;;;;;2.47;1.80;;;;;;;;;;6208087;23;20009;-96
2022/02/03 02:45:11;;;;;;;6.22;2.80;;;;;;;;;;6186243;23;20031;-95
2022/02/03 02:47:53;;;;;;;7.50;2.38;;;;;;;;;;6186204;23;20001;-96
2022/02/03 02:53:35;;;;;;;4.55;1.85;;;;;;;;;;6208460;23;20009;-95
2022/02/03 03:37:13;;;;;;;9.40;2.35;;;;;;;;;;6151122;23;20764;-96
2022/02/03 03:39:46;;;;;;;5.15;2.65;;;;;;;;;;6125329;23;20044;-95
2022/02/03 03:42:14;;;;;;;2.40;1.67;;;;;;;;;;6148578;23;20002;-96
2022/02/03 03:44:41;;;;;;;5.28;2.67;;;;;;;;;;6151638;23;20015;-96
2022/02/03 03:47:11;;;;;;;4.47;2.13;;;;;;;;;;6150988;23;20325;-95
2022/02/03 03:49:45;;;;;;;6.13;1.90;;;;;;;;;;6125104;23;20480;-95
2022/02/03 03:52:18;;;;;;;6.85;2.58;;;;;;;;;;6148652;23;20369;-95
2022/02/03 03:55:14;;;;;;;11.55;2.70;;;;;;;;;;6151641;23;20005;-96
2022/02/03 04:29:15;;;;;;;2.85;1.73;;;;;;;;;;6246386;23;20447;-95
2022/02/03 05:04:41;;;;;;;3.92;1.67;;;;;;;;;;6245133;23;20019;-96
2022/02/03 05:07:27;;;;;;;9.35;2.58;;;;;;;;;;6244110;23;20090;-96
2022/02/03 05:10:39;;;;;;;3.78;1.88;;;;;;;;;;6243637;23;20027;-96
2022/02/03 05:26:06;;;;;;;3.63;1.88;;;;;;;;;;6152366;23;20085;-95
2022/02/03 05:44:07;;;;;;;2.63;1.30;;;6.20;99.90;;;;;;6090906;23;20369;-96
2022/02/03 06:05:19;;;;;;;6.75;2.85;;;;;;;;;;6152075;23;20662;-96
2022/02/03 06:13:17;;;;;;;3.50;1.52;;;;;;;;;;6187786;23;20058;-95
2022/02/03 06:15:48;;;;;;;2.03;1.33;;;;;;;;;;6244617;23;20069;-95
2022/02/03 06:23:42;;;;;;;3.47;1.35;;;;;;;;;;6241296;23;20439;-94
2022/02/03 06:29:00;;;;;;;0.75;0.60;;;;;;;;;;6243590;23;20019;-95
2022/02/03 06:31:26;;;;;;;4.03;1.13;;;;;;;;;;6214545;23;20054;-95
2022/02/03 06:33:52;;;;;;;3.67;1.40;;;;;;;;;;6215452;23;20042;-95
2022/02/03 06:36:19;;;;;;;1.13;0.70;;;;;;;;;;6216753;23;20535;-95
2022/02/03 06:38:45;;;;;;;1.88;0.80;;;;;;;;;;6244237;23;20011;-94
2022/02/03 06:41:11;;;;;;;0.98;0.75;;;;;;;;;;6214931;23;20012;-94
2022/02/03 06:43:38;;;;;;;1.42;0.70;;;;;;;;;;6215141;23;20023;-95
2022/02/03 06:46:08;;;;;;;0.95;0.73;;;;;;;;;;6243385;23;20447;-95
2022/02/03 06:48:35;;;;;;;1.25;1.00;;;;;;;;;;6243483;23;20030;-96
2022/02/03 06:51:09;;;;;;;;;;;;;;;;;;6241836;23;20000;-96
2022/02/03 06:53:41;;;;;;;2.45;1.52;;;;;;;;;;6215229;23;19903;-95
2022/02/03 06:56:16;;;;;;;4.22;1.85;;;;;;;;;;6244439;23;20027;-96
2022/02/03 06:58:56;;;;;;;7.55;2.70;;;;;;;;;;6242776;23;20387;-96
2022/02/03 07:01:32;;;;;;;2.55;1.08;;;;;;;;;;6240737;23;20008;-95
2022/02/03 07:04:05;;;;;;;1.17;0.80;;;;;;;;;;6240412;23;20008;-96
2022/02/03 07:06:34;;;;;;;2.55;1.02;;;;;;;;;;6242955;23;20462;-95
2022/02/03 07:09:03;;;;;;;1.63;0.85;;;;;;;;;;6212935;23;20059;-95
2022/02/03 07:11:31;;;;;;;69.10;23.77;;;;;;;;;;6207229;23;20004;-96
2022/02/03 07:13:57;;;;;;;20.55;7.15;;;;;;;;;;6214104;23;20524;-95
2022/02/03 07:16:27;;;;;;;17.10;6.65;;;;;;;;;;6246282;23;20004;-96
2022/02/03 07:18:59;;;;;;;22.58;8.15;;;;;;;;;;6246547;23;20008;-95
2022/02/03 07:21:31;;;;;;;15.02;7.65;;;;;;;;;;6223015;23;20016;-96
2022/02/03 07:24:08;;;;;;;10.45;6.20;;;;;;;;;;6225188;23;20008;-96
2022/02/03 07:26:44;;;;;;;;;;;;;;;;;;;;;
2022/02/03 07:29:11;;;;;;;3.13;2.75;;;;;;;;;;6251031;23;20391;-96
2022/02/03 07:31:39;;;;;;;8.77;3.35;;;;;;;;;;6254181;23;20004;-96
2022/02/03 07:34:39;;;;;;;7.43;4.20;;;;;;;;;;6227882;23;20015;-96
2022/02/03 07:37:46;;;;;;;9.48;4.85;;;;;;;;;;6253820;23;20009;-96
2022/02/03 07:40:18;;;;;;;10.98;3.63;;;;;;;;;;6226984;23;20023;-96
2022/02/03 07:42:49;;;;;;;3.78;2.20;;;;;;;;;;6253330;23;20030;-96
2022/02/03 07:45:16;;;;;;;2.28;1.80;;;;;;;;;;6251394;23;20004;-92
2022/02/03 07:47:46;;;;;;;;;;;6.40;99.40;;;;;;6246526;23;20776;-92
2022/02/03 07:50:12;;;;;;;2.67;2.08;;;;;;;;;;6245134;23;19899;-92
2022/02/03 07:52:38;;;;;;;2.28;1.52;;;;;;;;;;6219849;23;20004;-96
2022/02/03 07:55:06;;;;;;;4.65;2.28;;;;;;;;;;6245687;23;20008;-95
2022/02/03 07:58:00;;;;;;;;;;;6.80;98.80;;;;;;6250773;23;19996;-95
2022/02/03 08:00:26;;;;;;;3.80;2.03;;;;;;;;;;6241008;23;19912;-93
2022/02/03 08:02:52;;;;;;;4.25;1.65;;;;;;;;;;6218794;23;20088;-93
2022/02/03 08:05:20;;;;;;;2.83;1.35;;;;;;;;;;6219551;23;20000;-92
2022/02/03 08:07:50;;;;;;;3.30;2.10;;;;;;;;;;6219214;23;20012;-91
2022/02/03 08:13:05;;;;;;;4.93;2.17;;;;;;;;;;6246882;23;20488;-94
2022/02/03 08:15:33;;;;;;;0.88;0.88;;;;;;;;;;6219392;23;20011;-94
2022/02/03 08:18:04;;;;;;;0.95;0.60;;;;;;;;;;6246898;23;20000;-93
2022/02/03 08:20:31;;;;;;;2.25;1.25;;;;;;;;;;6246089;23;20023;-95
2022/02/03 08:23:22;;;;;;;1.87;1.20;;;;;;;;;;6219263;23;20028;-93
2022/02/03 08:25:52;;;;;;;2.30;1.38;;;;;;;;;;6245730;23;20012;-94
2022/02/03 08:28:39;;;;;;;2.10;1.42;;;;;;;;;;6246591;23;20495;-94
2022/02/03 08:31:08;;;;;;;;;;;;;;;;;;6246990;23;19997;-95
2022/02/03 08:33:56;;;;;;;1.67;1.45;;;;;;;;;;6246656;23;19970;-96
2022/02/03 08:36:25;;;;;;;1.20;0.83;;;;;;;;;;6245797;23;20015;-96
2022/02/03 08:38:56;;;;;;;0.98;0.75;;;;;;;;;;6246667;23;19997;-94
2022/02/03 08:41:25;;;;;;;2.47;1.55;;;;;;;;;;6245612;23;20070;-93
2022/02/03 08:43:51;;;;;;;3.70;2.50;;;;;;;;;;6220329;23;20491;-94
2022/02/03 08:46:18;;;;;;;2.92;2.00;;;;;;;;;;6250675;23;20004;-96
2022/02/03 08:48:44;;;;;;;2.60;2.05;;;;;;;;;;6223541;23;20000;-96
2022/02/03 08:51:12;;;;;;;2.97;1.50;;;;;;;;;;6219649;23;20035;-92
2022/02/03 08:53:46;;;;;;;1.17;0.90;;;;;;;;;;6224321;23;20043;-96
2022/02/03 09:30:59;;;;;;;5.70;1.45;;;;;;;;;;6245140;23;20103;-92
2022/02/03 09:52:22;;;;;;;2.75;1.35;;;8.20;97.60;;;;;;6262804;23;20058;-96
2022/02/03 10:00:04;;;;;;;3.22;2.13;;;;;;;;;;6154137;23;20013;-96
2022/02/03 10:02:42;;;;;;;3.10;1.33;;;;;;;;;;6155194;23;20001;-96
2022/02/03 10:05:31;;;;;;;1.55;1.33;;;;;;;;;;6151271;23;20092;-95
2022/02/03 10:07:59;;;;;;;2.03;1.25;;;;;;;;;;6151077;23;20021;-96
2022/02/03 10:10:28;;;;;;;5.50;1.40;;;;;;;;;;6153093;23;20014;-93
2022/02/03 10:13:16;;;;;;;1.60;1.13;;;;;;;;;;6152194;23;20033;-95
2022/02/03 10:15:42;;;;;;;3.50;1.33;;;;;;;;;;6151439;23;20121;-92
2022/02/03 10:18:21;;;;;;;3.63;1.60;;;;;;;;;;6152666;23;20026;-93
2022/02/03 10:20:48;;;;;;;2.47;1.63;;;;;;;;;;6151733;23;20013;-91
2022/02/03 10:23:20;;;;;;;4.30;1.70;;;;;;;;;;6127225;23;20009;-94
2022/02/03 10:25:50;;;;;;;1.67;1.58;;;;;;;;;;6151161;23;20012;-93
2022/02/03 10:28:35;;;;;;;3.22;1.92;;;;;;;;;;6152507;23;20005;-95
2022/02/03 10:31:10;;;;;;;3.35;2.47;;;;;;;;;;6224341;23;20012;-94
2022/02/03 10:33:41;;;;;;;5.43;2.03;;;;;;;;;;6245508;23;20055;-96
2022/02/03 10:36:25;;;;;;;2.45;1.92;;;;;;;;;;6221754;23;20129;-95
2022/02/03 10:47:02;;;;;;;2.63;1.70;;;;;;;;;;6152055;23;20456;-92
2022/02/03 11:05:57;;;;;;;2.38;1.60;;;;;;;;;;6036596;23;20057;-96
2022/02/03 11:08:32;;;;;;;3.65;1.90;;;;;;;;;;6050359;23;20027;-96
2022/02/03 11:11:01;;;;;;;2.25;1.83;;;;;;;;;;6065683;23;20140;-94
2022/02/03 11:13:30;;;;;;;4.90;1.67;;;;;;;;;;6067740;23;20002;-96
2022/02/03 11:15:58;;;;;;;2.42;1.40;;;;;;;;;;6074793;23;20030;-94
2022/02/03 11:18:25;;;;;;;3.95;2.40;;;;;;;;;;6065010;23;20123;-93
2022/02/03 11:20:51;;;;;;;2.75;2.35;;;;;;;;;;6065876;23;20041;-94
2022/02/03 11:26:04;;;;;;;1.52;1.40;;;;;;;;;;6124431;23;20013;-96
2022/02/03 11:58:31;;;;;;;2.88;1.55;;;;;;;;;;6246674;23;20035;-94
2022/02/03 12:03:25;;;;;;;2.10;1.42;;;;;;;;;;6246303;23;20008;-94
2022/02/03 12:11:25;;;;;;;1.42;1.08;;;;;;;;;;6245882;23;20079;-94
2022/02/03 12:22:41;;;;;;;3.22;1.63;;;;;;;;;;6246051;23;20012;-95
2022/02/03 12:25:21;;;;;;;2.60;1.50;;;;;;;;;;6244725;22;20012;-95
2022/02/03 12:28:05;;;;;;;2.28;1.40;;;;;;;;;;6246006;23;20019;-92
2022/02/03 12:30:41;;;;;;;2.28;1.40;;;;;;;;;;6245018;23;20079;-89
2022/02/03 12:38:46;;;;;;;1.88;1.27;;;;;;;;;;6245383;23;20019;-90
2022/02/03 12:41:18;;;;;;;2.42;1.20;;;;;;;;;;6244586;23;20039;-90
2022/02/03 12:43:55;;;;;;;4.32;2.05;;;;;;;;;;6245098;23;20008;-91
2022/02/03 12:46:21;;;;;;;3.17;1.75;;;;;;;;;;6245074;23;20083;-90
2022/02/03 12:48:54;;;;;;;2.90;1.42;;;;;;;;;;6218473;23;20093;-90
2022/02/03 12:51:21;;;;;;;7.88;1.48;;;;;;;;;;6245246;23;20087;-95
2022/02/03 12:53:50;;;;;;;3.97;1.70;;;;;;;;;;6245725;23;20027;-95
2022/02/03 12:56:19;;;;;;;2.20;1.50;;;;;;;;;;6219321;23;20004;-94
2022/02/03 12:58:52;;;;;;;2.97;1.63;;;;;;;;;;6218700;23;20039;-94
2022/02/03 13:01:34;;;;;;;3.75;2.25;;;;;;;;;;6245560;23;20061;-93
2022/02/03 13:04:09;;;;;;;1.77;1.42;;;;;;;;;;6245284;23;20004;-96
2022/02/03 13:06:40;;;;;;;3.75;1.85;;;;;;;;;;6245965;23;20040;-94
2022/02/03 13:09:15;;;;;;;3.72;1.42;;;;;;;;;;6217813;23;20024;-93
2022/02/03 13:12:05;;;;;;;14.55;1.95;;;;;;;;;;6245350;23;20123;-93
2022/02/03 13:14:54;;;;;;;;;;;;;;;;;;;;;
2022/02/03 13:17:27;;;;;;;3.65;1.27;;;;;;;;;;6245656;22;20400;-94
2022/02/03 13:20:18;;;;;;;3.65;1.13;;;;;;;;;;6245561;23;20432;-95
2022/02/03 13:22:58;;;;;;;2.08;0.95;;;;;;;;;;6218625;23;20067;-92
2022/02/03 13:28:21;;;;;;;0.90;0.82;;;;;;;;;;6244743;23;20040;-92
2022/02/03 13:31:14;;;;;;;1.50;1.40;;;;;;;;;;6245288;23;20058;-95
2022/02/03 13:33:55;;;;;;;1.95;1.33;;;;;;;;;;6245214;23;20006;-93
2022/02/03 13:36:27;;;;;;;7.15;1.63;;;;;;;;;;6244918;23;20007;-93
2022/02/03 13:39:02;;;;;;;1.73;1.17;;;;;;;;;;6244762;23;20066;-93
2022/02/03 13:41:31;;;;;;;2.22;1.35;;;;;;;;;;6244593;23;20027;-93
2022/02/03 13:44:03;;;;;;;2.90;1.17;;;;;;;;;;6244231;23;20000;-92
2022/02/03 13:46:30;;;;;;;4.32;1.83;;;;;;;;;;6245479;23;20004;-90
2022/02/03 13:48:57;;;;;;;27.52;2.45;;;;;;;;;;6244443;23;20012;-94
2022/02/03 13:51:34;;;;;;;9.55;1.75;;;;;;;;;;6246552;23;19992;-95
2022/02/03 13:54:19;;;;;;;2.35;1.23;;;;;;;;;;6243415;23;20008;-91
2022/02/03 14:11:50;;;;;;;2.47;1.92;;;;;;;;;;6243800;23;20027;-93
2022/02/03 14:14:26;;;;;;;3.10;1.40;;;;;;;;;;6244666;22;20004;-94
2022/02/03 14:19:14;;;;;;;3.45;1.42;;;;;;;;;;6244788;23;20466;-95
2022/02/03 14:21:43;;;;;;;5.45;2.13;;;;;;;;;;6217900;23;20443;-94
2022/02/03 14:27:16;;;;;;;4.20;2.05;;;;;;;;;;6243798;23;20370;-92
2022/02/03 14:29:47;;;;;;;7.88;2.17;;;;;;;;;;6217981;23;20004;-93
2022/02/03 14:32:15;;;;;;;2.75;1.70;;;;;;;;;;6244104;23;20386;-92
2022/02/03 14:34:42;;;;;;;6.25;3.80;;;;;;;;;;6217337;23;20439;-91
2022/02/03 14:39:58;;;;;;;5.97;2.10;;;;;;;;;;6244264;23;20095;-91
2022/02/03 14:42:24;;;;;;;;;;;;;;;;;;6244777;23;20000;-94
2022/02/03 14:45:13;;;;;;;5.13;2.08;;;;;;;;;;6244507;23;19953;-94
2022/02/03 14:47:45;;;;;;;3.08;2.05;;;;;;;;;;6244531;23;20016;-94
2022/02/03 14:50:12;;;;;;;1.80;1.70;;;;;;;;;;6243414;23;20008;-94
2022/02/03 14:53:04;;;;;;;;;;;;;;;;;;6245202;23;20004;-94
2022/02/03 14:58:26;;;;;;;4.15;2.17;;;;;;;;;;6244419;23;20019;-93
2022/02/03 15:00:58;;;;;;;5.85;3.08;;;;;;;;;;6244400;23;20013;-94
2022/02/03 15:03:25;;;;;;;5.88;2.60;;;;;;;;;;6217310;23;20051;-93
2022/02/03 15:05:52;;;;;;;3.47;2.22;;;;;;;;;;6217483;23;20004;-93
2022/02/03 15:08:32;;;;;;;5.68;2.58;;;;;;;;;;6217324;23;20146;-91
2022/02/03 15:11:14;;;;;;;2.95;2.33;;;;;;;;;;6243721;23;20012;-92
2022/02/03 15:13:48;;;;;;;7.70;2.10;;;;;;;;;;6247506;23;20063;-96
2022/02/03 15:16:15;;;;;;;4.05;1.92;;;;;;;;;;6221282;23;20004;-94
2022/02/03 15:18:46;;;;;;;5.55;2.85;;;;;;;;;;6218265;23;20046;-94
2022/02/03 15:21:12;;;;;;;3.28;1.90;;;;;;;;;;6246939;23;20016;-95
2022/02/03 15:23:41;;;;;;;3.97;2.35;;;;;;;;;;6218414;23;19992;-95
2022/02/03 15:26:09;;;;;;;4.32;2.17;;;;;;;;;;6245879;23;20008;-94
2022/02/03 15:28:35;;;;;;;4.70;3.40;;;;;;;;;;6246675;23;20010;-94
2022/02/03 15:31:06;;;;;;;5.60;3.25;;;;;;;;;;6245726;23;20000;-94
2022/02/03 15:33:32;;;;;;;4.00;2.10;;;;;;;;;;6219315;23;20481;-95
2022/02/03 15:36:02;;;;;;;4.60;2.97;;;;;;;;;;6245766;23;20003;-94
2022/02/03 15:38:34;;;;;;;8.80;1.83;;;;;;;;;;6245739;23;20008;-95
2022/02/03 15:41:03;;;;;;;6.20;3.13;;;;;;;;;;6219067;23;20016;-93
2022/02/03 15:43:38;;;;;;;5.70;2.40;;;;;;;;;;6244215;23;19997;-91
2022/02/03 15:46:04;;;;;;;5.63;3.08;;;;;;;;;;6244488;23;20008;-93
2022/02/03 15:48:37;;;;;;;4.13;2.40;;;;;;;;;;6244035;23;20387;-92
2022/02/03 16:18:13;;;;;;;4.22;2.25;;;;;;;;;;6182427;23;20044;-93
2022/02/03 16:20:47;;;;;;;10.82;2.30;;;;;;;;;;6157924;23;20013;-92
2022/02/03 16:53:40;;;;;;;3.35;2.92;;;;;;;;;;6245483;23;20019;-95
2022/02/03 16:56:08;;;;;;;3.10;2.05;;;;;;;;;;6238707;22;20007;-93
2022/02/03 16:58:44;;;;;;;4.70;2.58;;;;;;;;;;6245701;23;20087;-96
2022/02/03 17:01:11;;;;;;;2.97;2.20;;;;;;;;;;6244026;23;20035;-95
2022/02/03 17:03:45;;;;;;;4.60;2.20;;;;;;;;;;6243122;23;20020;-95
2022/02/03 17:06:14;;;;;;;5.90;2.83;;;;;;;;;;6243883;22;20008;-95
2022/02/03 17:08:42;;;;;;;6.07;3.67;;;;;;;;;;6246118;23;20015;-94
2022/02/03 17:11:11;;;;;;;6.53;3.20;;;;;;;;;;6214533;23;20012;-95
2022/02/03 17:13:37;;;;;;;6.85;3.05;;;;;;;;;;6245767;23;20080;-95
2022/02/03 17:16:16;;;;;;;2.95;2.00;;;;;;;;;;6248618;23;20502;-94
2022/02/03 17:18:42;;;;;;;4.55;2.22;;;;;;;;;;6246944;23;20419;-93
2022/02/03 17:21:13;;;;;;;6.03;3.13;;;;;;;;;;6221283;23;20540;-94
2022/02/03 17:23:43;;;;;;;4.57;3.17;;;;;;;;;;6248629;23;20004;-96
2022/02/03 17:26:22;;;;;;;4.93;2.35;;;;;;;;;;6250511;23;20008;-94
2022/02/03 17:29:06;;;;;;;5.15;3.00;;;;;;;;;;6218780;23;20004;-95
2022/02/03 17:31:57;;;;;;;4.20;3.13;;;;;;;;;;6246238;23;20004;-94
2022/02/03 18:29:05;;;;;;;7.75;4.25;;;;;;;;;;6008213;23;20008;-93
2022/02/03 18:33:21;;;;;;;5.55;3.70;;;;;;;;;;6000624;23;20007;-93
2022/02/03 19:16:13;;;;;;;6.50;4.32;;;;;;;;;;5978587;24;20088;-95
2022/02/03 19:58:29;;;;;;;18.67;5.18;;;;;;;;;;6124396;23;20045;-95
2022/02/03 20:01:08;;;;;;;14.65;6.82;;;;;;;;;;6155528;23;20090;-94
2022/02/03 20:05:56;;;;;;;37.80;15.52;;;;;;;;;;6216286;23;20071;-94
2022/02/03 20:08:31;;;;;;;28.02;12.68;;;;;;;;;;6195567;23;20087;-94
2022/02/03 20:11:03;;;;;;;23.45;10.95;;;;;;;;;;6245112;23;20023;-95
2022/02/03 20:13:32;;;;;;;13.95;8.00;;;;;;;;;;6250141;23;20078;-95
2022/02/03 20:15:58;;;;;;;17.95;6.28;;;;;;;;;;6246472;23;20313;-94
2022/02/03 20:18:24;;;;;;;20.88;8.02;;;;;;;;;;6246698;23;20092;-95
2022/02/03 20:20:50;;;;;;;14.93;6.93;;;;;;;;;;6219310;23;20431;-94
2022/02/03 20:23:28;;;;;;;18.75;7.85;;;;;;;;;;6246070;23;20011;-95
2022/02/03 20:25:57;;;;;;;14.80;7.35;;;;;;;;;;6245758;23;20023;-94
2022/02/03 20:28:25;;;;;;;15.70;7.70;;;;;;;;;;6245889;23;20382;-94
2022/02/03 20:30:54;;;;;;;23.52;9.90;;;;;;;;;;6246193;23;19997;-95
2022/02/03 20:33:20;;;;;;;16.23;8.57;;;;;;;;;;6245845;23;20011;-95
2022/02/03 20:35:46;;;;;;;11.33;6.17;;;;;;;;;;6246046;23;20019;-93
2022/02/03 20:38:15;;;;;;;11.10;5.82;;;;;;;;;;6245972;23;20636;-93
2022/02/03 20:40:41;;;;;;;7.55;3.83;;;;;;;;;;6245785;23;20012;-96
2022/02/03 20:43:07;;;;;;;14.90;5.85;;;;;;;;;;6245794;23;20000;-96
2022/02/03 20:45:33;;;;;;;9.85;6.13;;;;;;;;;;6245930;23;20055;-96
2022/02/03 20:47:59;;;;;;;20.73;5.72;;;;;;;;;;6219175;23;20008;-96
2022/02/03 20:50:25;;;;;;;15.00;6.97;;;;;;;;;;6219891;23;20612;-96
2022/02/03 20:52:51;;;;;;;10.90;4.75;;;;;;;;;;6245878;23;20390;-96
2022/02/03 20:55:17;;;;;;;9.05;4.63;;;;;;;;;;6246199;23;20049;-96
2022/02/03 20:57:44;;;;;;;13.80;6.07;;;;;;;;;;6245703;23;20009;-95
2022/02/03 21:00:19;;;;;;;10.27;5.03;;;;;;;;;;6218491;23;20016;-96
2022/02/03 21:05:16;;;;;;;9.18;5.90;;;;;;;;;;6245783;23;20012;-95
2022/02/03 21:07:48;;;;;;;10.35;6.05;;;;;;;;;;6246064;23;20042;-96
2022/02/03 21:10:17;;;;;;;11.80;6.00;;;;;;;;;;6218777;23;20406;-95
2022/02/03 21:12:43;;;;;;;12.68;5.65;;;;;;;;;;6246126;23;20008;-95
2022/02/03 21:15:11;;;;;;;11.30;6.40;;;;;;;;;;6218825;23;20436;-95
2022/02/03 21:17:37;;;;;;;8.38;4.00;;;;;;;;;;6245965;23;20064;-94
2022/02/03 21:20:11;;;;;;;12.60;5.72;;;;;;;;;;6245789;23;20024;-95
2022/02/03 21:22:38;;;;;;;13.98;6.07;;;;;;;;;;6245310;23;20004;-95
2022/02/03 21:25:21;;;;;;;19.98;7.78;;;;;;;;;;6245103;23;20008;-94
2022/02/03 21:27:48;;;;;;;10.20;4.93;;;;;;;;;;6219009;23;20000;-96
2022/02/03 21:30:16;;;;;;;4.03;3.55;;;;;;;;;;6219309;23;20015;-95
2022/02/03 21:32:42;;;;;;;11.82;5.75;;;;;;;;;;6245632;23;20004;-95
2022/02/03 21:35:09;;;;;;;10.38;5.45;;;;;;;;;;6218832;23;20019;-95
2022/02/03 21:37:35;;;;;;;7.35;4.03;;;;;;;;;;6245382;23;20000;-94
2022/02/03 21:40:02;;;;;;;8.38;3.75;;;;;;;;;;6218332;23;20016;-96
2022/02/03 21:42:28;;;;;;;4.38;3.85;;;;;;;;;;6245911;23;20026;-95
2022/02/03 21:44:54;;;;;;;5.25;3.40;;;;;;;;;;6244802;23;20016;-95
2022/02/03 21:47:44;;;;;;;4.13;2.63;;;;;;;;;;6245660;23;20086;-94
2022/02/03 21:50:10;;;;;;;6.20;3.33;;;;;;;;;;6245496;23;20340;-95
2022/02/03 21:52:40;;;;;;;10.93;4.05;;;;;;;;;;6219465;23;20004;-95
2022/02/03 21:55:08;;;;;;;5.65;2.95;;;;;;;;;;6245656;23;20007;-96
2022/02/03 21:57:43;;;;;;;7.32;4.15;;;;;;;;;;6218727;23;20012;-96
2022/02/03 22:00:11;;;;;;;4.10;2.67;;;;;;;;;;6241914;23;20016;-95
2022/02/03 22:02:37;;;;;;;8.02;3.58;;;;;;;;;;6245591;23;20008;-96
2022/02/03 22:05:35;;;;;;;7.88;2.50;;;;;;;;;;6218240;23;20095;-96
2022/02/03 22:08:02;;;;;;;4.05;2.45;;;;;;;;;;6211736;23;20000;-96
2022/02/03 22:10:28;;;;;;;8.80;3.13;;;;;;;;;;6219454;23;20473;-94
2022/02/03 22:12:54;;;;;;;4.57;2.72;;;;;;;;;;6246163;23;20004;-96
2022/02/03 22:15:20;;;;;;;8.48;3.70;;;;;;;;;;6245654;23;20004;-95
2022/02/03 22:17:47;;;;;;;4.28;2.47;;;;;;;;;;6218519;23;20010;-95
2022/02/03 22:20:30;;;;;;;7.70;3.22;;;;;;;;;;6245346;23;20024;-95
2022/02/03 22:38:56;;;;;;;10.35;3.92;;;;;;;;;;6245306;23;20042;-96
2022/02/03 22:44:23;;;;;;;4.53;3.33;;;;;;;;;;6245396;23;20011;-96
2022/02/03 22:49:48;;;;;;;8.60;3.55;;;;;;;;;;6245179;23;20015;-96
2022/02/03 22:52:16;;;;;;;8.43;3.05;;;;;;;;;;6245201;23;20008;-96
2022/02/03 22:54:42;;;;;;;6.55;3.08;;;;;;;;;;6245710;23;20004;-96
2022/02/03 22:57:08;;;;;;;7.50;3.90;;;;;;;;;;6218681;23;20591;-95
2022/02/03 23:02:22;;;;;;;5.18;3.58;;;;;;;;;;6245586;23;20039;-96
2022/02/03 23:04:48;;;;;;;7.68;3.38;;;;;;;;;;6218706;23;20010;-95
2022/02/03 23:07:34;;;;;;;4.80;2.55;;;;;;;;;;6245257;23;20008;-94
2022/02/03 23:13:08;;;;;;;6.60;3.30;;;;;;;;;;6246364;23;20023;-96
2022/02/03 23:23:34;;;;;;;4.65;2.95;;;;;;;;;;6247754;23;20062;-96
2022/02/03 23:26:00;;;;;;;6.57;3.92;;;;;;;;;;6247894;23;20004;-95
2022/02/03 23:28:32;;;;;;;5.68;3.75;;;;;;;;;;6220944;23;20443;-95
2022/02/03 23:30:58;;;;;;;6.72;3.03;;;;;;;;;;6220024;23;20054;-95
2022/02/03 23:33:29;;;;;;;6.45;2.88;;;;;;;;;;6220270;23;20099;-94
2022/02/03 23:35:55;;;;;;;3.72;2.58;;;;;;;;;;6220300;23;20010;-96
2022/02/03 23:41:25;;;;;;;4.57;2.80;;;;;;;;;;6247578;23;20020;-96
